Bassfield, Mississippi
Current Conditions -  °F | °C
As of 3:35 PM on Friday 19 Dec 2014 (Local Time) from KPIB Reporting Station
Clear Clear  
Wind Chill: 44°   Ceiling: Unl
Heat Index: 46°   Visibility: 5mi
Dew Point: 43°   Wind: 6mph
Humidity: 87%   Direction: 40°NE
Pressure: 30.13"   Gusts: NA
Location:  31.5°N, 89.74°W
Report Text: KPIB 192135Z AUTO 04005KT 5SM CLR 08/06 A3013 RMK AO1 P0003
Loading
Personal Weather Stations






























Interactive Weather Map New forecast layout! Learn more

10-Day Weather Forecast

Advertisements
Track Severe Weather on mobile